Time;durP1;ratioP1;P1;durP2;ratioP2;P2;SDS_P1;SDS_P2;PMS_P1;PMS_P2;Temp;Humidity;BMP_temperature;BMP_pressure;BME280_temperature;BME280_humidity;BME280_pressure;Samples;Min_cycle;Max_cycle;Signal;HPM_P1;HPM_P2
2022/01/08 00:00:00;;;;;;;24.37;14.20;;;;;;;2.74;96.18;96868.28;5096394;28;20903;-36
2022/01/08 00:02:28;;;;;;;33.00;13.43;;;;;;;2.70;96.56;96869.63;5094984;28;20453;-37
2022/01/08 00:04:55;;;;;;;27.37;12.47;;;;;;;2.71;96.85;96875.69;5096230;28;20785;-36
2022/01/08 00:07:22;;;;;;;26.40;12.40;;;;;;;2.64;97.49;96871.19;5096170;28;20491;-36
2022/01/08 00:09:49;;;;;;;28.70;13.77;;;;;;;2.67;98.30;96872.63;5095854;28;20450;-37
2022/01/08 00:12:18;;;;;;;21.10;11.93;;;;;;;2.71;98.25;96879.16;5095816;28;20881;-36
2022/01/08 00:14:46;;;;;;;22.00;11.90;;;;;;;2.76;97.93;96875.97;5095628;28;20450;-36
2022/01/08 00:17:13;;;;;;;22.63;12.07;;;;;;;2.81;97.75;96887.50;5095701;28;20446;-37
2022/01/08 00:19:40;;;;;;;24.67;13.67;;;;;;;2.84;97.95;96887.16;5095951;28;20779;-37
2022/01/08 00:22:08;;;;;;;24.10;11.87;;;;;;;2.92;97.93;96883.59;5095923;28;20466;-36
2022/01/08 00:24:35;;;;;;;28.20;12.30;;;;;;;2.94;97.92;96896.53;5095482;28;20443;-37
2022/01/08 00:27:03;;;;;;;30.00;11.80;;;;;;;3.00;97.77;96882.66;5095425;28;20998;-36
2022/01/08 00:29:31;;;;;;;22.87;12.57;;;;;;;2.98;97.76;96871.56;5095526;28;20452;-37
2022/01/08 00:31:58;;;;;;;20.50;11.20;;;;;;;3.04;97.31;96876.06;5095453;28;20443;-37
2022/01/08 00:34:26;;;;;;;29.43;11.17;;;;;;;2.99;97.85;96871.38;5095687;28;20822;-37
2022/01/08 00:36:53;;;;;;;29.67;13.53;;;;;;;2.91;98.41;96873.31;5095261;28;20449;-36
2022/01/08 00:39:20;;;;;;;18.77;10.00;;;;;;;2.90;99.02;96866.41;5095164;28;20949;-37
2022/01/08 00:41:48;;;;;;;22.73;11.90;;;;;;;2.85;99.69;96865.16;5095144;28;20519;-37
2022/01/08 00:44:17;;;;;;;26.90;12.80;;;;;;;2.87;100.00;96864.97;5095484;28;20442;-36
2022/01/08 00:46:47;;;;;;;24.97;13.07;;;;;;;2.86;100.00;96853.69;5095017;28;20483;-37
2022/01/08 00:49:14;;;;;;;22.67;12.87;;;;;;;2.86;100.00;96843.19;5095369;28;20454;-37
2022/01/08 00:51:41;;;;;;;26.67;13.40;;;;;;;3.05;100.00;96851.44;5095370;28;20439;-37
2022/01/08 00:54:08;;;;;;;23.80;12.30;;;;;;;3.11;99.73;96845.44;5094978;28;20445;-36
2022/01/08 00:56:36;;;;;;;36.23;13.33;;;;;;;3.14;99.29;96847.72;5095208;28;20451;-37
2022/01/08 00:59:04;;;;;;;28.77;13.57;;;;;;;3.12;99.04;96846.25;5094696;28;20470;-37
2022/01/08 01:01:32;;;;;;;26.90;10.97;;;;;;;3.09;99.23;96831.69;5095117;28;20482;-37
2022/01/08 01:04:00;;;;;;;21.57;12.57;;;;;;;2.98;99.78;96837.47;5095082;28;20443;-37
2022/01/08 01:06:28;;;;;;;27.83;13.10;;;;;;;3.00;100.00;96843.31;5095090;28;20822;-37
2022/01/08 01:08:55;;;;;;;26.50;11.60;;;;;;;3.05;100.00;96823.41;5094581;28;20513;-37
2022/01/08 01:11:22;;;;;;;31.50;12.53;;;;;;;3.10;100.00;96824.63;5094639;28;20923;-37
2022/01/08 01:13:49;;;;;;;20.97;11.63;;;;;;;3.08;100.00;96825.66;5094477;28;20857;-37
2022/01/08 01:16:18;;;;;;;23.97;13.20;;;;;;;3.13;100.00;96822.47;5094939;28;20808;-37
2022/01/08 01:18:46;;;;;;;26.10;12.60;;;;;;;3.20;99.76;96822.50;5094808;28;20504;-37
2022/01/08 01:21:15;;;;;;;23.03;11.63;;;;;;;3.31;99.27;96829.06;5094667;28;20453;-36
2022/01/08 01:23:43;;;;;;;26.17;12.70;;;;;;;3.38;98.34;96822.06;5094783;28;20451;-37
2022/01/08 01:26:16;;;;;;;26.17;12.03;;;;;;;3.46;98.04;96833.25;5094714;28;20439;-37
2022/01/08 01:28:48;;;;;;;27.00;11.53;;;;;;;3.53;97.54;96835.91;5094678;28;20478;-37
2022/01/08 01:42:36;;;;;;;18.83;11.50;;;;;;;3.55;97.35;96789.28;5071376;28;20431;-37
2022/01/08 01:47:50;;;;;;;27.13;13.60;;;;;;;3.69;96.75;96775.22;5094329;28;20579;-37
2022/01/08 01:50:17;;;;;;;24.13;12.20;;;;;;;3.74;96.10;96787.78;5093866;28;20778;-37
2022/01/08 01:52:46;;;;;;;22.00;12.10;;;;;;;3.76;95.49;96787.59;5094293;28;20443;-37
2022/01/08 01:55:13;;;;;;;24.77;12.43;;;;;;;3.76;95.54;96775.25;5094185;28;20447;-36
2022/01/08 01:57:40;;;;;;;26.93;13.80;;;;;;;3.76;95.89;96780.50;5093898;28;20442;-37
2022/01/08 02:00:09;;;;;;;27.13;12.23;;;;;;;3.76;95.86;96775.25;5094125;28;20453;-37
2022/01/08 02:02:36;;;;;;;22.57;12.63;;;;;;;3.78;95.75;96775.88;5093790;28;20435;-37
2022/01/08 02:05:05;;;;;;;30.63;13.10;;;;;;;3.79;95.64;96774.09;5093711;28;20784;-37
2022/01/08 02:07:33;;;;;;;23.63;13.70;;;;;;;3.82;96.01;96773.69;5093945;28;20483;-36
2022/01/08 02:10:01;;;;;;;23.57;12.33;;;;;;;3.80;95.89;96766.00;5093684;28;20447;-37
2022/01/08 02:12:32;;;;;;;29.43;14.33;;;;;;;3.75;95.76;96764.97;5093871;28;20439;-37
2022/01/08 02:15:00;;;;;;;29.17;11.83;;;;;;;3.69;95.91;96759.47;5093957;28;20502;-37
2022/01/08 02:17:27;;;;;;;19.43;10.53;;;;;;;3.65;96.54;96758.22;5093930;28;20447;-37
2022/01/08 02:19:56;;;;;;;19.77;11.07;;;;;;;3.64;96.53;96756.63;5093507;28;20439;-37
2022/01/08 02:22:23;;;;;;;21.43;11.37;;;;;;;3.69;96.50;96756.84;5093575;28;20446;-37
2022/01/08 02:24:51;;;;;;;24.93;12.53;;;;;;;3.75;96.48;96757.88;5093880;28;20443;-37
2022/01/08 02:27:19;;;;;;;38.30;13.20;;;;;;;3.79;96.19;96764.38;5093115;28;20482;-38
2022/01/08 02:29:46;;;;;;;39.20;14.03;;;;;;;3.82;95.75;96761.34;5094180;28;20446;-37
2022/01/08 02:32:17;;;;;;;24.07;14.53;;;;;;;3.84;95.50;96772.47;5093457;28;20447;-37
2022/01/08 02:34:45;;;;;;;28.00;13.20;;;;;;;3.87;95.34;96761.59;5093412;28;20915;-37
2022/01/08 02:37:14;;;;;;;29.93;13.27;;;;;;;3.90;95.36;96766.44;5093385;28;20931;-38
2022/01/08 02:39:43;;;;;;;27.67;13.93;;;;;;;3.91;95.01;96751.50;5093682;28;20461;-37
2022/01/08 02:42:14;;;;;;;21.47;11.27;;;;;;;3.88;95.28;96757.16;5093253;28;20439;-37
2022/01/08 02:44:43;;;;;;;18.97;12.27;;;;;;;3.85;95.62;96742.59;5093671;28;20439;-37
2022/01/08 02:47:10;;;;;;;24.77;11.40;;;;;;;3.86;95.36;96764.41;5093471;28;20484;-36
2022/01/08 02:49:38;;;;;;;18.60;10.13;;;;;;;3.79;95.33;96746.00;5093533;28;20949;-37
2022/01/08 02:52:07;;;;;;;19.67;11.67;;;;;;;3.93;95.04;96754.75;5093581;28;20451;-37
2022/01/08 02:54:36;;;;;;;20.47;9.97;;;;;;;3.95;95.02;96755.34;5093335;28;20443;-37
2022/01/08 02:57:04;;;;;;;19.10;9.87;;;;;;;3.96;94.96;96753.53;5093526;28;20451;-36
2022/01/08 02:59:32;;;;;;;21.87;12.17;;;;;;;3.96;94.65;96754.38;5093456;28;20826;-37
2022/01/08 03:01:59;;;;;;;38.90;16.23;;;;;;;3.95;94.88;96736.97;5093437;28;20449;-37
2022/01/08 03:04:26;;;;;;;31.57;14.63;;;;;;;3.96;94.95;96746.50;5093433;28;20781;-38
2022/01/08 03:06:53;;;;;;;24.07;13.50;;;;;;;3.96;95.44;96749.13;5093099;28;20447;-37
2022/01/08 03:09:20;;;;;;;25.27;11.97;;;;;;;3.96;95.26;96743.88;5093003;28;20494;-37
2022/01/08 03:11:49;;;;;;;20.97;11.87;;;;;;;3.97;95.43;96744.66;5093002;28;20447;-37
2022/01/08 03:14:16;;;;;;;23.10;12.50;;;;;;;3.95;95.65;96742.22;5093408;28;20450;-36
2022/01/08 03:16:43;;;;;;;26.00;10.87;;;;;;;3.90;95.82;96734.13;5092907;28;20439;-37
2022/01/08 03:19:11;;;;;;;29.87;14.90;;;;;;;3.96;95.64;96727.25;5093307;28;21003;-37
2022/01/08 03:21:42;;;;;;;26.30;11.03;;;;;;;4.00;95.41;96737.22;5092910;28;20446;-37
2022/01/08 03:24:14;;;;;;;25.67;13.67;;;;;;;4.01;95.09;96728.31;5093249;28;20445;-37
2022/01/08 03:26:41;;;;;;;43.00;19.97;;;;;;;4.02;95.43;96742.25;5093014;28;20431;-37
2022/01/08 03:29:10;;;;;;;46.93;19.97;;;;;;;3.97;95.25;96737.59;5092837;28;20483;-37
2022/01/08 03:31:38;;;;;;;43.23;19.00;;;;;;;3.98;95.19;96735.75;5092929;28;20489;-37
2022/01/08 03:34:05;;;;;;;29.50;14.93;;;;;;;3.99;95.14;96732.94;5092827;28;20940;-37
2022/01/08 03:36:33;;;;;;;22.47;12.13;;;;;;;4.02;95.09;96747.50;5092897;28;20449;-37
2022/01/08 03:39:00;;;;;;;32.70;15.57;;;;;;;3.96;94.79;96743.88;5096520;28;20443;-37
2022/01/08 03:41:27;;;;;;;30.90;14.10;;;;;;;4.01;94.96;96738.00;5096443;28;20453;-37
2022/01/08 03:43:56;;;;;;;25.30;14.37;;;;;;;3.84;95.89;96719.16;5096675;28;20526;-37
2022/01/08 03:46:28;;;;;;;29.90;12.93;;;;;;;3.93;96.38;96736.34;5096286;28;20934;-37
2022/01/08 03:51:37;;;;;;;25.70;13.97;;;;;;;3.94;96.92;96737.19;5092730;28;20427;-36
2022/01/08 03:54:05;;;;;;;23.10;12.97;;;;;;;3.94;96.70;96724.84;5096228;28;20439;-37
2022/01/08 03:56:32;;;;;;;26.00;10.80;;;;;;;3.90;97.04;96726.25;5096102;28;20439;-37
2022/01/08 03:58:59;;;;;;;33.87;16.27;;;;;;;3.89;97.25;96730.69;5095993;28;20481;-37
2022/01/08 04:01:28;;;;;;;21.80;12.07;;;;;;;3.92;96.94;96731.31;5096368;28;20443;-37
2022/01/08 04:03:55;;;;;;;32.23;16.13;;;;;;;3.93;96.79;96725.84;5096217;28;20806;-37
2022/01/08 04:06:22;;;;;;;28.03;16.70;;;;;;;3.95;96.96;96728.28;5095952;28;20439;-37
2022/01/08 04:08:56;;;;;;;31.83;15.77;;;;;;;3.93;96.90;96717.97;5096041;28;20483;-37
2022/01/08 04:11:23;;;;;;;23.00;13.63;;;;;;;3.86;97.04;96719.75;5095999;28;20840;-37
2022/01/08 04:13:50;;;;;;;22.20;11.90;;;;;;;3.82;97.77;96721.16;5095745;28;20538;-37
2022/01/08 04:16:22;;;;;;;29.23;14.57;;;;;;;3.82;98.31;96721.97;5096015;28;20564;-37
2022/01/08 04:18:51;;;;;;;31.83;15.33;;;;;;;3.84;98.63;96719.16;5095710;28;20922;-37
2022/01/08 04:21:58;;;;;;;31.30;15.70;;;;;;;3.86;98.29;96717.94;5095999;28;20446;-37
2022/01/08 04:24:13;;;;;;;30.30;15.57;;;;;;;3.91;97.59;96725.22;5095552;28;20518;-37
2022/01/08 04:26:40;;;;;;;32.70;14.57;;;;;;;3.93;97.44;96717.97;5095897;28;20439;-37
2022/01/08 04:29:07;;;;;;;26.33;15.30;;;;;;;3.96;97.10;96717.59;5095387;28;20490;-37
2022/01/08 04:31:35;;;;;;;27.17;14.00;;;;;;;3.98;96.82;96715.56;5095509;28;20450;-36
2022/01/08 04:34:03;;;;;;;34.43;15.73;;;;;;;4.01;96.53;96715.16;5095861;28;20492;-37
2022/01/08 04:36:30;;;;;;;27.33;14.43;;;;;;;4.03;96.38;96720.25;5095393;28;20446;-36
2022/01/08 04:38:58;;;;;;;26.10;12.87;;;;;;;4.04;95.91;96713.97;5095622;28;20874;-37
2022/01/08 04:41:25;;;;;;;25.50;14.43;;;;;;;4.05;95.42;96711.16;5095284;28;20439;-37
2022/01/08 04:43:52;;;;;;;34.27;17.53;;;;;;;4.07;95.66;96713.59;5095254;28;20443;-37
2022/01/08 04:46:19;;;;;;;35.13;18.17;;;;;;;4.03;96.59;96707.91;5095060;28;20443;-37
2022/01/08 04:48:47;;;;;;;33.93;16.13;;;;;;;4.00;97.18;96704.84;5094324;28;20998;-37
2022/01/08 04:51:15;;;;;;;26.13;14.77;;;;;;;4.01;97.09;96709.91;5095110;28;20446;-37
2022/01/08 04:53:43;;;;;;;23.33;12.03;;;;;;;4.02;96.74;96706.31;5095047;28;20443;-37
2022/01/08 04:56:10;;;;;;;28.63;14.90;;;;;;;4.04;96.75;96695.56;5095044;28;20446;-37
2022/01/08 04:58:37;;;;;;;37.13;15.53;;;;;;;4.02;96.74;96690.53;5094902;28;20982;-37
2022/01/08 05:01:04;;;;;;;37.70;16.70;;;;;;;4.03;96.68;96697.41;5094863;28;20439;-37
2022/01/08 05:03:32;;;;;;;42.07;15.10;;;;;;;4.03;96.59;96697.41;5095042;28;20442;-37
2022/01/08 05:05:59;;;;;;;33.97;15.30;;;;;;;4.04;96.25;96699.03;5094743;28;20439;-37
2022/01/08 05:08:27;;;;;;;31.37;15.67;;;;;;;4.04;96.28;96692.94;5094627;28;20475;-37
2022/01/08 05:10:55;;;;;;;32.23;13.60;;;;;;;4.02;96.69;96711.56;5094682;28;20439;-36
2022/01/08 05:13:22;;;;;;;27.20;13.70;;;;;;;3.97;96.28;96706.06;5094747;28;20439;-37
2022/01/08 05:15:49;;;;;;;32.73;13.93;;;;;;;3.96;96.23;96707.09;5094486;28;20530;-37
2022/01/08 05:18:16;;;;;;;39.10;15.33;;;;;;;3.97;96.23;96705.25;5094811;28;20451;-37
2022/01/08 05:20:52;;;;;;;28.93;15.43;;;;;;;3.98;95.93;96702.44;5094815;28;20808;-37
2022/01/08 05:23:20;;;;;;;29.53;14.60;;;;;;;3.97;96.01;96698.19;5094494;28;20431;-37
2022/01/08 05:25:48;;;;;;;32.03;18.20;;;;;;;4.00;96.24;96697.81;5094332;28;20445;-37
2022/01/08 05:28:16;;;;;;;28.23;15.27;;;;;;;4.00;96.60;96695.19;5095412;28;20483;-37
2022/01/08 05:30:43;;;;;;;24.90;13.57;;;;;;;4.01;96.68;96694.16;5094685;28;20438;-37
2022/01/08 05:33:10;;;;;;;32.30;16.10;;;;;;;4.00;96.75;96692.56;5094577;28;20439;-37
2022/01/08 05:35:38;;;;;;;37.50;15.43;;;;;;;4.00;96.86;96687.28;5094207;28;20439;-37
2022/01/08 05:38:05;;;;;;;22.43;12.77;;;;;;;4.02;96.66;96690.53;5094475;28;20449;-37
2022/01/08 05:40:32;;;;;;;26.63;16.73;;;;;;;4.02;96.29;96694.97;5094215;28;20985;-37
2022/01/08 05:43:01;;;;;;;40.27;15.67;;;;;;;3.91;96.14;96683.19;5094078;28;20454;-37
2022/01/08 05:45:28;;;;;;;35.53;15.60;;;;;;;3.97;96.45;96687.66;5094096;28;20443;-37
2022/01/08 05:47:55;;;;;;;32.97;16.47;;;;;;;3.99;96.80;96685.66;5094048;28;20443;-37
2022/01/08 05:50:23;;;;;;;36.77;17.27;;;;;;;4.03;96.62;96686.88;5093757;28;20581;-36
2022/01/08 05:52:50;;;;;;;33.00;16.37;;;;;;;4.01;96.69;96688.09;5094328;28;20443;-37
2022/01/08 05:55:18;;;;;;;31.60;15.10;;;;;;;3.83;96.65;96664.97;5093875;28;20446;-37
2022/01/08 05:57:45;;;;;;;35.13;15.20;;;;;;;3.97;96.78;96686.88;5093914;28;20457;-37
2022/01/08 06:00:14;;;;;;;36.27;16.40;;;;;;;3.94;96.67;96689.91;5094171;28;20779;-37
2022/01/08 06:02:42;;;;;;;32.97;16.30;;;;;;;3.92;97.06;96690.09;5093723;28;20445;-36
2022/01/08 06:05:10;;;;;;;35.93;16.30;;;;;;;3.91;97.24;96680.56;5094061;28;20439;-37
2022/01/08 06:07:37;;;;;;;34.47;14.20;;;;;;;3.90;97.31;96682.41;5093727;28;20450;-37
2022/01/08 06:10:06;;;;;;;38.53;16.33;;;;;;;3.92;97.23;96679.59;5093883;28;20838;-37
2022/01/08 06:12:33;;;;;;;24.67;13.77;;;;;;;3.93;96.94;96685.63;5093656;28;20441;-36
2022/01/08 06:15:00;;;;;;;23.53;13.77;;;;;;;3.94;96.78;96688.06;5093696;28;20446;-36
2022/01/08 06:17:29;;;;;;;30.10;13.57;;;;;;;3.96;96.86;96680.81;5093840;28;20521;-37
2022/01/08 06:19:56;;;;;;;28.33;14.53;;;;;;;4.00;96.59;96683.84;5094427;28;20488;-37
2022/01/08 06:22:24;;;;;;;26.30;15.40;;;;;;;4.01;96.74;96686.28;5093508;28;20927;-37
2022/01/08 06:24:51;;;;;;;30.80;14.53;;;;;;;4.02;96.46;96679.19;5093824;28;20454;-36
2022/01/08 06:27:18;;;;;;;31.40;15.37;;;;;;;3.89;96.23;96665.03;5100365;28;20441;-37
2022/01/08 06:29:46;;;;;;;33.87;18.40;;;;;;;3.87;95.97;96663.59;5114018;28;20573;-37
2022/01/08 06:32:14;;;;;;;42.67;19.40;;;;;;;3.99;96.17;96675.16;5114068;28;20450;-37
2022/01/08 06:34:43;;;;;;;49.53;23.60;;;;;;;4.03;96.28;96686.88;5113963;28;20515;-37
2022/01/08 06:37:10;;;;;;;40.90;18.37;;;;;;;4.05;96.06;96674.38;5113647;28;20442;-37
2022/01/08 06:39:38;;;;;;;34.23;17.37;;;;;;;3.99;95.82;96675.16;5114004;28;20442;-37
2022/01/08 06:42:06;;;;;;;38.03;15.67;;;;;;;4.07;96.09;96674.97;5113895;28;20525;-37
2022/01/08 06:44:33;;;;;;;32.23;16.37;;;;;;;4.08;96.20;96673.97;5113969;28;20445;-37
2022/01/08 06:47:00;;;;;;;33.70;16.37;;;;;;;4.10;96.72;96671.13;5113867;28;20449;-37
2022/01/08 06:49:27;;;;;;;32.60;15.90;;;;;;;4.09;96.81;96665.09;5113438;28;20496;-37
2022/01/08 06:51:56;;;;;;;56.13;30.83;;;;;;;4.14;96.41;96668.94;5113487;28;20438;-37
2022/01/08 06:54:23;;;;;;;50.20;29.00;;;;;;;4.15;96.37;96660.03;5113815;28;20842;-37
2022/01/08 06:56:50;;;;;;;36.47;19.80;;;;;;;4.18;96.65;96662.28;5113523;28;20446;-36
2022/01/08 06:59:17;;;;;;;36.40;17.20;;;;;;;4.21;96.52;96669.75;5113261;28;20965;-36
2022/01/08 07:01:45;;;;;;;29.60;14.70;;;;;;;4.22;96.61;96672.19;5113703;28;20442;-37
2022/01/08 07:04:12;;;;;;;29.33;16.07;;;;;;;4.26;96.64;96664.72;5113461;28;20944;-36
2022/01/08 07:06:39;;;;;;;35.70;19.07;;;;;;;4.29;96.46;96669.56;5113364;28;20438;-37
2022/01/08 07:09:08;;;;;;;37.83;16.83;;;;;;;4.31;96.60;96668.34;5113366;28;20473;-37
2022/01/08 07:11:35;;;;;;;42.90;17.90;;;;;;;4.30;96.44;96666.75;5113446;28;20450;-37
2022/01/08 07:14:03;;;;;;;39.87;19.70;;;;;;;4.17;96.78;96644.88;5117634;28;20438;-36
2022/01/08 07:16:30;;;;;;;32.10;16.43;;;;;;;4.30;96.95;96665.91;5117320;28;20455;-37
2022/01/08 07:18:57;;;;;;;25.50;14.97;;;;;;;4.29;97.02;96672.19;5117165;27;20933;-37
2022/01/08 07:21:24;;;;;;;34.27;19.17;;;;;;;4.28;96.79;96660.88;5117207;28;20448;-37
2022/01/08 07:23:53;;;;;;;39.70;23.60;;;;;;;4.31;96.90;96665.72;5117129;28;20438;-37
2022/01/08 07:26:21;;;;;;;55.73;25.53;;;;;;;4.34;96.79;96666.34;5117423;28;20454;-37
2022/01/08 07:28:48;;;;;;;46.40;24.40;;;;;;;4.35;96.63;96658.25;5117213;28;20457;-37
2022/01/08 07:31:16;;;;;;;38.13;20.27;;;;;;;4.26;96.60;96641.88;5113385;27;20506;-37
2022/01/08 07:33:43;;;;;;;56.33;31.10;;;;;;;4.46;97.23;96662.94;5096596;28;20941;-37
2022/01/08 07:36:10;;;;;;;43.57;21.23;;;;;;;4.50;97.21;96652.81;5096854;28;20892;-37
2022/01/08 07:38:38;;;;;;;95.70;41.17;;;;;;;4.50;96.89;96660.72;5096820;28;20465;-36
2022/01/08 07:41:05;;;;;;;114.10;52.77;;;;;;;4.51;96.61;96663.13;5096358;28;20767;-36
2022/01/08 07:43:34;;;;;;;50.33;24.33;;;;;;;4.49;96.34;96667.78;5096352;28;20875;-37
2022/01/08 07:46:01;;;;;;;31.63;17.03;;;;;;;4.49;96.25;96666.97;5096642;28;20443;-37
2022/01/08 07:48:28;;;;;;;36.00;17.70;;;;;;;4.50;96.29;96658.88;5096611;28;20535;-38
2022/01/08 07:50:55;;;;;;;30.40;15.60;;;;;;;4.52;96.46;96661.31;5096256;28;20498;-37
2022/01/08 07:53:22;;;;;;;34.93;17.27;;;;;;;4.55;96.08;96662.75;5096173;28;20449;-37
2022/01/08 07:55:50;;;;;;;37.80;20.23;;;;;;;4.53;96.51;96662.13;5096495;28;20937;-37
2022/01/08 07:58:20;;;;;;;37.33;19.67;;;;;;;4.53;96.45;96664.75;5096167;28;20584;-36
2022/01/08 08:00:49;;;;;;;44.73;24.70;;;;;;;4.51;96.40;96665.75;5096185;28;20927;-37
2022/01/08 08:03:16;;;;;;;50.77;32.17;;;;;;;4.57;96.33;96661.53;5096290;28;20439;-36
2022/01/08 08:05:44;;;;;;;55.27;26.90;;;;;;;4.60;96.37;96661.09;5096368;28;20439;-37
2022/01/08 08:08:15;;;;;;;55.43;24.97;;;;;;;4.62;96.10;96658.28;5095967;28;21017;-36
2022/01/08 08:10:43;;;;;;;52.57;24.10;;;;;;;4.59;96.41;96646.34;5096056;28;20582;-37
2022/01/08 08:13:10;;;;;;;40.10;18.13;;;;;;;4.61;95.94;96656.69;5096157;28;20446;-37
2022/01/08 08:15:37;;;;;;;44.63;23.40;;;;;;;4.61;95.79;96648.78;5095699;28;20439;-37
2022/01/08 08:18:07;;;;;;;28.80;16.60;;;;;;;4.60;95.99;96652.41;5095748;28;20449;-37
2022/01/08 08:20:34;;;;;;;40.40;22.20;;;;;;;4.57;95.72;96644.94;5096075;28;20516;-37
2022/01/08 08:23:01;;;;;;;26.57;15.63;;;;;;;4.57;95.81;96639.69;5095156;28;20450;-36
2022/01/08 08:25:28;;;;;;;24.23;13.50;;;;;;;4.59;95.90;96648.19;5095104;28;20446;-36
2022/01/08 08:27:56;;;;;;;32.97;16.90;;;;;;;4.62;96.00;96647.75;5095867;28;20446;-37
2022/01/08 08:30:23;;;;;;;41.87;22.23;;;;;;;4.66;95.99;96656.88;5095506;28;20493;-36
2022/01/08 08:32:51;;;;;;;41.67;22.47;;;;;;;4.57;95.29;96623.91;5095463;28;20453;-37
2022/01/08 08:35:19;;;;;;;38.03;18.80;;;;;;;4.71;95.46;96641.28;5095388;28;20524;-37
2022/01/08 08:37:46;;;;;;;29.90;14.90;;;;;;;4.69;95.42;96638.88;5095427;28;20445;-38
2022/01/08 08:40:15;;;;;;;34.80;16.03;;;;;;;4.76;96.35;96649.41;5095320;28;20941;-36
2022/01/08 08:42:43;;;;;;;37.73;23.27;;;;;;;4.84;97.09;96630.78;5104559;28;20806;-37
2022/01/08 08:45:11;;;;;;;43.90;20.97;;;;;;;4.85;96.49;96636.84;5115777;28;20785;-36
2022/01/08 08:47:39;;;;;;;56.70;27.10;;;;;;;4.84;95.79;96628.16;5115859;28;20793;-37
2022/01/08 08:50:08;;;;;;;34.10;21.33;;;;;;;4.79;95.80;96621.88;5115335;28;20543;-36
2022/01/08 08:52:37;;;;;;;44.00;22.73;;;;;;;4.77;96.47;96624.69;5115405;28;20446;-37
2022/01/08 08:55:05;;;;;;;40.80;20.00;;;;;;;4.77;96.74;96621.25;5115705;28;20546;-36
2022/01/08 08:57:32;;;;;;;45.30;21.27;;;;;;;4.74;96.65;96609.34;5115378;28;20445;-37
2022/01/08 09:00:00;;;;;;;49.37;27.87;;;;;;;4.72;96.68;96608.72;5115259;28;20534;-36
2022/01/08 09:02:27;;;;;;;59.60;27.80;;;;;;;4.65;97.00;96610.56;5115521;28;20485;-36
2022/01/08 09:04:54;;;;;;;48.47;25.27;;;;;;;4.65;97.20;96600.84;5115448;28;20445;-36
2022/01/08 09:07:21;;;;;;;66.43;29.53;;;;;;;4.68;97.12;96604.88;5115119;28;20438;-36
2022/01/08 09:09:50;;;;;;;44.47;22.90;;;;;;;4.69;97.04;96601.25;5114966;28;20486;-37
2022/01/08 09:12:17;;;;;;;40.10;19.03;;;;;;;4.72;97.14;96600.84;5115003;28;20438;-37
2022/01/08 09:14:45;;;;;;;35.77;15.80;;;;;;;4.77;97.54;96602.84;5115263;28;20449;-37
2022/01/08 09:17:14;;;;;;;34.20;17.43;;;;;;;4.78;97.39;96599.22;5115254;28;20446;-36
2022/01/08 09:19:42;;;;;;;37.47;16.80;;;;;;;4.76;97.48;96591.53;5114840;28;20442;-37
2022/01/08 09:22:09;;;;;;;37.80;17.40;;;;;;;4.75;97.18;96579.38;5114798;28;20807;-37
2022/01/08 09:24:37;;;;;;;45.90;21.83;;;;;;;4.76;97.40;96585.47;5114750;28;20440;-37
2022/01/08 09:27:07;;;;;;;49.90;26.87;;;;;;;4.72;97.12;96585.84;5114729;28;20467;-36
2022/01/08 09:29:34;;;;;;;39.87;17.10;;;;;;;4.74;97.16;96583.03;5111491;28;20500;-38
2022/01/08 09:32:02;;;;;;;43.50;22.40;;;;;;;4.69;97.77;96582.84;5093970;28;20805;-36
2022/01/08 09:34:29;;;;;;;55.03;25.60;;;;;;;4.70;98.08;96576.56;5094040;28;20943;-37
2022/01/08 09:36:58;;;;;;;62.57;23.67;;;;;;;4.72;98.15;96575.34;5094561;28;20511;-36
2022/01/08 09:39:26;;;;;;;87.37;32.77;;;;;;;4.74;98.71;96567.25;5094223;28;20439;-37
2022/01/08 09:41:54;;;;;;;61.53;27.37;;;;;;;4.78;98.98;96578.97;5094523;28;20500;-36
2022/01/08 09:44:23;;;;;;;66.37;29.33;;;;;;;4.80;98.62;96582.22;5094023;28;20801;-36
2022/01/08 09:46:50;;;;;;;48.97;19.20;;;;;;;4.83;98.74;96567.84;5095275;28;20458;-36
2022/01/08 09:49:18;;;;;;;94.07;37.80;;;;;;;4.85;98.29;96565.81;5099741;28;20442;-37
2022/01/08 09:51:45;;;;;;;44.83;24.50;;;;;;;4.89;98.70;96559.94;5114305;28;20442;-36
2022/01/08 09:54:12;;;;;;;89.73;32.40;;;;;;;4.89;98.85;96562.56;5114195;28;20918;-36
2022/01/08 09:56:40;;;;;;;48.33;23.70;;;;;;;4.81;98.42;96549.63;5114162;28;20442;-36
2022/01/08 09:59:07;;;;;;;86.17;32.53;;;;;;;4.95;97.92;96574.09;5113839;28;20477;-36
2022/01/08 10:01:37;;;;;;;78.23;40.30;;;;;;;4.85;98.15;96553.47;5114089;28;20445;-36
2022/01/08 10:04:06;;;;;;;91.23;32.67;;;;;;;4.91;98.25;96554.47;5114083;28;20434;-37
2022/01/08 10:06:36;;;;;;;156.87;61.93;;;;;;;4.86;98.72;96560.34;5114281;28;20435;-36
2022/01/08 10:09:05;;;;;;;93.40;45.27;;;;;;;4.98;98.83;96568.41;5114374;28;20434;-38
2022/01/08 10:11:33;;;;;;;46.03;21.93;;;;;;;5.00;98.50;96563.75;5113917;28;20517;-37
2022/01/08 10:14:05;;;;;;;36.20;20.03;;;;;;;5.00;98.99;96547.97;5114663;28;20450;-36
2022/01/08 10:19:23;;;;;;;43.10;20.40;;;;;;;5.04;98.41;96551.00;5114151;28;20471;-36
2022/01/08 10:21:52;;;;;;;47.00;21.03;;;;;;;5.08;98.64;96546.94;5114294;28;20438;-36
2022/01/08 10:24:22;;;;;;;36.33;19.60;;;;;;;5.12;98.21;96542.88;5114232;28;20937;-36
2022/01/08 10:26:51;;;;;;;44.40;19.87;;;;;;;5.15;97.56;96542.47;5114170;28;20453;-36
2022/01/08 10:29:20;;;;;;;36.00;17.17;;;;;;;5.15;97.47;96531.94;5113866;28;20442;-36
2022/01/08 10:31:49;;;;;;;31.97;16.33;;;;;;;5.10;97.28;96534.41;5113766;28;20492;-36
2022/01/08 10:34:17;;;;;;;35.10;18.40;;;;;;;5.22;97.49;96527.44;5114129;28;20442;-36
2022/01/08 10:36:48;;;;;;;38.20;16.80;;;;;;;5.22;97.14;96516.91;5113746;28;20487;-36
2022/01/08 10:39:20;;;;;;;34.90;21.10;;;;;;;5.24;97.57;96529.88;5114135;28;20426;-37
2022/01/08 10:41:49;;;;;;;37.27;18.40;;;;;;;5.26;97.41;96523.38;5113840;28;20495;-37
2022/01/08 10:44:19;;;;;;;25.53;15.77;;;;;;;5.23;97.29;96518.53;5113703;28;20438;-36
2022/01/08 10:57:51;;;;;;;32.77;18.30;;;;;;;5.29;97.40;96511.63;5131910;27;20561;-34
2022/01/08 11:00:19;;;;;;;30.17;14.93;;;;;;;5.28;97.19;96510.81;5114711;27;20503;-34
2022/01/08 11:02:46;;;;;;;21.97;12.93;;;;;;;5.27;97.28;96498.69;5111273;28;20446;-35
2022/01/08 11:05:14;;;;;;;23.97;13.20;;;;;;;5.22;98.12;96501.13;5110856;28;20917;-34
2022/01/08 11:07:42;;;;;;;23.80;9.33;;;;;;;5.06;98.87;96494.50;5110918;28;20446;-34
2022/01/08 11:10:16;;;;;;;14.37;6.90;;;;;;;4.92;99.64;96499.00;5110829;28;20446;-35
2022/01/08 11:12:45;;;;;;;10.97;6.77;;;;;;;4.92;100.00;96498.19;5110815;28;20898;-36
2022/01/08 11:15:36;;;;;;;27.83;13.57;;;;;;;4.67;100.00;96480.47;5110952;28;20529;-35
2022/01/08 11:18:04;;;;;;;25.30;13.80;;;;;;;4.79;100.00;96485.88;5110667;28;20446;-33
2022/01/08 11:20:33;;;;;;;19.13;11.80;;;;;;;4.82;100.00;96492.56;5110598;28;20797;-34
2022/01/08 11:23:03;;;;;;;51.83;21.60;;;;;;;4.85;100.00;96495.59;5110562;28;20449;-34
2022/01/08 11:25:34;;;;;;;58.20;26.50;;;;;;;4.88;100.00;96489.94;5110485;28;20925;-34
2022/01/08 11:28:07;;;;;;;40.63;21.20;;;;;;;4.92;100.00;96490.31;5110538;28;20433;-35
2022/01/08 11:30:38;;;;;;;50.87;26.93;;;;;;;4.92;100.00;96475.31;5110818;28;20925;-33
2022/01/08 11:33:11;;;;;;;67.10;27.27;;;;;;;4.97;99.84;96481.78;5110235;28;20446;-33
2022/01/08 11:35:39;;;;;;;48.87;22.80;;;;;;;4.99;99.55;96463.97;5110763;28;20897;-34
2022/01/08 11:38:08;;;;;;;49.17;21.90;;;;;;;5.04;99.84;96477.31;5110610;28;20447;-35
2022/01/08 11:40:36;;;;;;;43.83;21.20;;;;;;;5.07;99.64;96466.38;5110331;28;20532;-34
2022/01/08 11:43:05;;;;;;;54.63;21.73;;;;;;;5.04;99.70;96467.59;5110553;28;20856;-34
2022/01/08 11:45:35;;;;;;;44.00;20.00;;;;;;;5.05;99.31;96456.03;5110226;28;20438;-34
2022/01/08 11:48:07;;;;;;;51.40;23.97;;;;;;;5.05;99.81;96457.88;5110439;28;20522;-34
2022/01/08 11:50:34;;;;;;;29.53;12.60;;;;;;;5.08;99.47;96452.22;5110430;28;20430;-33
2022/01/08 11:53:19;;;;;;;46.77;20.10;;;;;;;5.08;99.56;96453.00;5110347;28;20532;-35
2022/01/08 11:55:49;;;;;;;20.43;11.90;;;;;;;5.10;99.43;96444.91;5109802;28;20492;-34
2022/01/08 11:58:19;;;;;;;30.63;11.93;;;;;;;5.10;99.62;96443.09;5099462;28;20427;-35